sensor_id;sensor_type;location;lat;lon;timestamp;P1;durP1;ratioP1;P2;durP2;ratioP2
75171;SDS011;63750;52.418;20.742;2023-03-08T00:01:20;6.90;;;5.40;;
75171;SDS011;63750;52.418;20.742;2023-03-08T00:03:51;6.10;;;5.50;;
75171;SDS011;63750;52.418;20.742;2023-03-08T00:06:19;6.80;;;5.00;;
75171;SDS011;63750;52.418;20.742;2023-03-08T00:08:47;5.40;;;4.90;;
75171;SDS011;63750;52.418;20.742;2023-03-08T00:11:15;6.90;;;5.30;;
75171;SDS011;63750;52.418;20.742;2023-03-08T00:13:42;5.80;;;5.20;;
75171;SDS011;63750;52.418;20.742;2023-03-08T00:16:10;6.10;;;4.90;;
75171;SDS011;63750;52.418;20.742;2023-03-08T00:18:38;5.60;;;5.00;;
75171;SDS011;63750;52.418;20.742;2023-03-08T00:21:08;5.50;;;4.80;;
75171;SDS011;63750;52.418;20.742;2023-03-08T00:23:37;5.30;;;4.80;;
75171;SDS011;63750;52.418;20.742;2023-03-08T00:26:05;5.40;;;4.90;;
75171;SDS011;63750;52.418;20.742;2023-03-08T00:28:33;6.40;;;5.80;;
75171;SDS011;63750;52.418;20.742;2023-03-08T00:31:01;7.60;;;6.10;;
75171;SDS011;63750;52.418;20.742;2023-03-08T00:33:30;6.60;;;5.90;;
75171;SDS011;63750;52.418;20.742;2023-03-08T00:35:59;6.80;;;5.40;;
75171;SDS011;63750;52.418;20.742;2023-03-08T00:38:27;6.80;;;5.40;;
75171;SDS011;63750;52.418;20.742;2023-03-08T00:40:57;6.50;;;5.90;;
75171;SDS011;63750;52.418;20.742;2023-03-08T00:43:25;8.30;;;6.40;;
75171;SDS011;63750;52.418;20.742;2023-03-08T00:45:53;7.50;;;6.70;;
75171;SDS011;63750;52.418;20.742;2023-03-08T00:48:21;7.00;;;6.10;;
75171;SDS011;63750;52.418;20.742;2023-03-08T00:50:49;7.90;;;6.50;;
75171;SDS011;63750;52.418;20.742;2023-03-08T00:53:16;7.60;;;6.20;;
75171;SDS011;63750;52.418;20.742;2023-03-08T00:55:47;7.20;;;6.50;;
75171;SDS011;63750;52.418;20.742;2023-03-08T00:58:16;7.70;;;6.90;;
75171;SDS011;63750;52.418;20.742;2023-03-08T01:00:43;7.00;;;6.30;;
75171;SDS011;63750;52.418;20.742;2023-03-08T01:03:11;6.70;;;6.00;;
75171;SDS011;63750;52.418;20.742;2023-03-08T01:05:39;6.90;;;6.20;;
75171;SDS011;63750;52.418;20.742;2023-03-08T01:08:07;7.70;;;6.50;;
75171;SDS011;63750;52.418;20.742;2023-03-08T01:10:35;8.00;;;6.50;;
75171;SDS011;63750;52.418;20.742;2023-03-08T01:13:02;6.90;;;6.20;;
75171;SDS011;63750;52.418;20.742;2023-03-08T01:15:34;7.50;;;6.60;;
75171;SDS011;63750;52.418;20.742;2023-03-08T01:18:02;8.60;;;6.30;;
75171;SDS011;63750;52.418;20.742;2023-03-08T01:20:30;9.20;;;5.90;;
75171;SDS011;63750;52.418;20.742;2023-03-08T01:22:58;7.80;;;6.20;;
75171;SDS011;63750;52.418;20.742;2023-03-08T01:25:25;6.50;;;5.90;;
75171;SDS011;63750;52.418;20.742;2023-03-08T01:27:53;7.00;;;5.80;;
75171;SDS011;63750;52.418;20.742;2023-03-08T01:30:20;6.60;;;5.90;;
75171;SDS011;63750;52.418;20.742;2023-03-08T01:32:48;6.50;;;5.80;;
75171;SDS011;63750;52.418;20.742;2023-03-08T01:35:15;6.90;;;6.20;;
75171;SDS011;63750;52.418;20.742;2023-03-08T01:37:43;6.60;;;6.00;;
75171;SDS011;63750;52.418;20.742;2023-03-08T01:40:11;6.90;;;6.30;;
75171;SDS011;63750;52.418;20.742;2023-03-08T01:42:40;6.20;;;5.40;;
75171;SDS011;63750;52.418;20.742;2023-03-08T01:48:07;5.90;;;5.30;;
75171;SDS011;63750;52.418;20.742;2023-03-08T01:50:34;6.00;;;4.70;;
75171;SDS011;63750;52.418;20.742;2023-03-08T01:53:02;6.00;;;5.40;;
75171;SDS011;63750;52.418;20.742;2023-03-08T01:55:29;6.70;;;6.00;;
75171;SDS011;63750;52.418;20.742;2023-03-08T01:57:57;6.50;;;5.90;;
75171;SDS011;63750;52.418;20.742;2023-03-08T02:00:24;6.90;;;5.30;;
75171;SDS011;63750;52.418;20.742;2023-03-08T02:02:53;6.20;;;5.30;;
75171;SDS011;63750;52.418;20.742;2023-03-08T02:05:23;6.30;;;5.50;;
75171;SDS011;63750;52.418;20.742;2023-03-08T02:07:51;6.60;;;5.50;;
75171;SDS011;63750;52.418;20.742;2023-03-08T02:10:19;5.80;;;5.10;;
75171;SDS011;63750;52.418;20.742;2023-03-08T02:12:47;6.40;;;5.10;;
75171;SDS011;63750;52.418;20.742;2023-03-08T02:15:16;5.50;;;4.90;;
75171;SDS011;63750;52.418;20.742;2023-03-08T02:17:45;5.50;;;4.90;;
75171;SDS011;63750;52.418;20.742;2023-03-08T02:20:14;5.50;;;5.00;;
75171;SDS011;63750;52.418;20.742;2023-03-08T02:22:46;5.50;;;4.90;;
75171;SDS011;63750;52.418;20.742;2023-03-08T02:25:14;6.40;;;4.70;;
75171;SDS011;63750;52.418;20.742;2023-03-08T02:27:44;7.40;;;5.00;;
75171;SDS011;63750;52.418;20.742;2023-03-08T02:30:13;5.60;;;5.10;;
75171;SDS011;63750;52.418;20.742;2023-03-08T02:32:47;5.60;;;5.00;;
75171;SDS011;63750;52.418;20.742;2023-03-08T02:35:15;5.70;;;5.20;;
75171;SDS011;63750;52.418;20.742;2023-03-08T02:37:43;6.40;;;5.80;;
75171;SDS011;63750;52.418;20.742;2023-03-08T02:40:12;7.20;;;5.50;;
75171;SDS011;63750;52.418;20.742;2023-03-08T02:42:40;8.20;;;6.30;;
75171;SDS011;63750;52.418;20.742;2023-03-08T02:45:09;8.00;;;7.20;;
75171;SDS011;63750;52.418;20.742;2023-03-08T02:47:37;6.60;;;6.00;;
75171;SDS011;63750;52.418;20.742;2023-03-08T02:50:05;5.60;;;5.10;;
75171;SDS011;63750;52.418;20.742;2023-03-08T02:52:34;6.60;;;5.90;;
75171;SDS011;63750;52.418;20.742;2023-03-08T02:55:01;6.20;;;5.70;;
75171;SDS011;63750;52.418;20.742;2023-03-08T02:57:29;6.40;;;5.80;;
75171;SDS011;63750;52.418;20.742;2023-03-08T02:59:57;8.40;;;6.20;;
75171;SDS011;63750;52.418;20.742;2023-03-08T03:02:24;7.90;;;6.60;;
75171;SDS011;63750;52.418;20.742;2023-03-08T03:04:51;7.20;;;6.50;;
75171;SDS011;63750;52.418;20.742;2023-03-08T03:07:18;7.50;;;6.80;;
75171;SDS011;63750;52.418;20.742;2023-03-08T03:09:46;7.70;;;6.70;;
75171;SDS011;63750;52.418;20.742;2023-03-08T03:12:13;7.30;;;6.60;;
75171;SDS011;63750;52.418;20.742;2023-03-08T03:14:41;7.90;;;6.80;;
75171;SDS011;63750;52.418;20.742;2023-03-08T03:17:08;7.70;;;6.70;;
75171;SDS011;63750;52.418;20.742;2023-03-08T03:19:36;8.20;;;7.30;;
75171;SDS011;63750;52.418;20.742;2023-03-08T03:22:04;8.70;;;7.80;;
75171;SDS011;63750;52.418;20.742;2023-03-08T03:24:31;13.20;;;10.20;;
75171;SDS011;63750;52.418;20.742;2023-03-08T03:26:58;12.90;;;9.70;;
75171;SDS011;63750;52.418;20.742;2023-03-08T03:29:26;10.90;;;9.80;;
75171;SDS011;63750;52.418;20.742;2023-03-08T03:31:53;10.90;;;9.80;;
75171;SDS011;63750;52.418;20.742;2023-03-08T03:34:20;12.30;;;10.70;;
75171;SDS011;63750;52.418;20.742;2023-03-08T03:36:48;11.00;;;9.90;;
75171;SDS011;63750;52.418;20.742;2023-03-08T03:39:15;9.90;;;8.90;;
75171;SDS011;63750;52.418;20.742;2023-03-08T03:41:43;10.80;;;9.20;;
75171;SDS011;63750;52.418;20.742;2023-03-08T03:44:10;10.00;;;9.00;;
75171;SDS011;63750;52.418;20.742;2023-03-08T03:46:38;10.30;;;8.90;;
75171;SDS011;63750;52.418;20.742;2023-03-08T03:49:05;10.30;;;9.30;;
75171;SDS011;63750;52.418;20.742;2023-03-08T03:51:33;10.50;;;9.50;;
75171;SDS011;63750;52.418;20.742;2023-03-08T03:54:00;12.90;;;10.60;;
75171;SDS011;63750;52.418;20.742;2023-03-08T03:56:28;11.20;;;9.90;;
75171;SDS011;63750;52.418;20.742;2023-03-08T03:58:55;14.40;;;11.50;;
75171;SDS011;63750;52.418;20.742;2023-03-08T04:01:23;12.10;;;10.80;;
75171;SDS011;63750;52.418;20.742;2023-03-08T04:03:53;12.20;;;10.90;;
75171;SDS011;63750;52.418;20.742;2023-03-08T04:06:21;11.20;;;9.80;;
75171;SDS011;63750;52.418;20.742;2023-03-08T04:08:51;12.50;;;11.20;;
75171;SDS011;63750;52.418;20.742;2023-03-08T04:11:20;12.30;;;11.00;;
75171;SDS011;63750;52.418;20.742;2023-03-08T04:13:48;13.70;;;11.80;;
75171;SDS011;63750;52.418;20.742;2023-03-08T04:16:17;13.70;;;11.80;;
75171;SDS011;63750;52.418;20.742;2023-03-08T04:18:45;13.20;;;11.80;;
75171;SDS011;63750;52.418;20.742;2023-03-08T04:21:13;13.80;;;12.40;;
75171;SDS011;63750;52.418;20.742;2023-03-08T04:23:40;14.90;;;12.80;;
75171;SDS011;63750;52.418;20.742;2023-03-08T04:26:08;15.60;;;13.40;;
75171;SDS011;63750;52.418;20.742;2023-03-08T04:28:35;14.90;;;13.30;;
75171;SDS011;63750;52.418;20.742;2023-03-08T04:31:10;16.60;;;13.60;;
75171;SDS011;63750;52.418;20.742;2023-03-08T04:33:39;15.00;;;13.50;;
75171;SDS011;63750;52.418;20.742;2023-03-08T04:36:07;14.90;;;13.30;;
75171;SDS011;63750;52.418;20.742;2023-03-08T04:38:35;15.80;;;13.20;;
75171;SDS011;63750;52.418;20.742;2023-03-08T04:41:03;18.80;;;14.80;;
75171;SDS011;63750;52.418;20.742;2023-03-08T04:43:30;17.90;;;15.30;;
75171;SDS011;63750;52.418;20.742;2023-03-08T04:45:58;17.50;;;15.10;;
75171;SDS011;63750;52.418;20.742;2023-03-08T04:48:25;17.50;;;14.80;;
75171;SDS011;63750;52.418;20.742;2023-03-08T04:50:53;17.40;;;15.00;;
75171;SDS011;63750;52.418;20.742;2023-03-08T04:53:21;17.50;;;14.00;;
75171;SDS011;63750;52.418;20.742;2023-03-08T04:55:49;16.90;;;14.50;;
75171;SDS011;63750;52.418;20.742;2023-03-08T04:58:17;17.70;;;15.30;;
75171;SDS011;63750;52.418;20.742;2023-03-08T05:00:45;18.40;;;15.40;;
75171;SDS011;63750;52.418;20.742;2023-03-08T05:03:13;18.00;;;15.50;;
75171;SDS011;63750;52.418;20.742;2023-03-08T05:05:44;19.10;;;16.10;;
75171;SDS011;63750;52.418;20.742;2023-03-08T05:08:12;17.70;;;15.00;;
75171;SDS011;63750;52.418;20.742;2023-03-08T05:10:40;16.60;;;14.80;;
75171;SDS011;63750;52.418;20.742;2023-03-08T05:13:13;17.80;;;15.00;;
75171;SDS011;63750;52.418;20.742;2023-03-08T05:15:41;16.80;;;15.00;;
75171;SDS011;63750;52.418;20.742;2023-03-08T05:18:08;19.20;;;15.30;;
75171;SDS011;63750;52.418;20.742;2023-03-08T05:20:35;18.60;;;14.70;;
75171;SDS011;63750;52.418;20.742;2023-03-08T05:23:03;18.20;;;15.00;;
75171;SDS011;63750;52.418;20.742;2023-03-08T05:25:30;17.50;;;14.50;;
75171;SDS011;63750;52.418;20.742;2023-03-08T05:27:57;16.00;;;14.10;;
75171;SDS011;63750;52.418;20.742;2023-03-08T05:30:25;15.60;;;13.70;;
75171;SDS011;63750;52.418;20.742;2023-03-08T05:32:52;15.50;;;13.50;;
75171;SDS011;63750;52.418;20.742;2023-03-08T05:35:20;15.90;;;13.40;;
75171;SDS011;63750;52.418;20.742;2023-03-08T05:37:47;13.90;;;12.50;;
75171;SDS011;63750;52.418;20.742;2023-03-08T05:40:14;14.50;;;12.80;;
75171;SDS011;63750;52.418;20.742;2023-03-08T05:42:42;13.80;;;12.30;;
75171;SDS011;63750;52.418;20.742;2023-03-08T05:45:10;15.40;;;13.10;;
75171;SDS011;63750;52.418;20.742;2023-03-08T05:47:38;15.60;;;13.00;;
75171;SDS011;63750;52.418;20.742;2023-03-08T05:50:06;14.70;;;12.80;;
75171;SDS011;63750;52.418;20.742;2023-03-08T05:52:35;15.70;;;12.80;;
75171;SDS011;63750;52.418;20.742;2023-03-08T05:55:02;13.90;;;11.80;;
75171;SDS011;63750;52.418;20.742;2023-03-08T05:57:31;12.40;;;11.20;;
75171;SDS011;63750;52.418;20.742;2023-03-08T05:59:58;15.40;;;11.70;;
75171;SDS011;63750;52.418;20.742;2023-03-08T06:02:27;13.00;;;11.60;;
75171;SDS011;63750;52.418;20.742;2023-03-08T06:04:54;13.20;;;11.80;;
75171;SDS011;63750;52.418;20.742;2023-03-08T06:07:21;12.80;;;11.00;;
75171;SDS011;63750;52.418;20.742;2023-03-08T06:09:49;16.70;;;12.10;;
75171;SDS011;63750;52.418;20.742;2023-03-08T06:12:16;14.20;;;10.70;;
75171;SDS011;63750;52.418;20.742;2023-03-08T06:14:43;11.80;;;10.50;;
75171;SDS011;63750;52.418;20.742;2023-03-08T06:17:11;12.20;;;11.00;;
75171;SDS011;63750;52.418;20.742;2023-03-08T06:19:38;14.30;;;12.40;;
75171;SDS011;63750;52.418;20.742;2023-03-08T06:22:05;13.10;;;11.00;;
75171;SDS011;63750;52.418;20.742;2023-03-08T06:24:33;14.30;;;11.40;;
75171;SDS011;63750;52.418;20.742;2023-03-08T06:27:00;13.60;;;10.80;;
75171;SDS011;63750;52.418;20.742;2023-03-08T06:29:30;12.20;;;10.90;;
75171;SDS011;63750;52.418;20.742;2023-03-08T06:31:57;11.10;;;9.90;;
75171;SDS011;63750;52.418;20.742;2023-03-08T06:34:24;11.30;;;9.80;;
75171;SDS011;63750;52.418;20.742;2023-03-08T06:36:51;12.70;;;11.00;;
75171;SDS011;63750;52.418;20.742;2023-03-08T06:39:19;14.10;;;10.80;;
75171;SDS011;63750;52.418;20.742;2023-03-08T06:41:46;12.60;;;10.80;;
75171;SDS011;63750;52.418;20.742;2023-03-08T06:44:14;12.90;;;11.50;;
75171;SDS011;63750;52.418;20.742;2023-03-08T06:46:41;12.40;;;11.10;;
75171;SDS011;63750;52.418;20.742;2023-03-08T06:49:08;11.50;;;10.30;;
75171;SDS011;63750;52.418;20.742;2023-03-08T06:51:36;11.60;;;10.10;;
75171;SDS011;63750;52.418;20.742;2023-03-08T06:54:03;11.50;;;9.70;;
75171;SDS011;63750;52.418;20.742;2023-03-08T06:56:30;9.80;;;8.90;;
75171;SDS011;63750;52.418;20.742;2023-03-08T06:58:58;10.50;;;9.40;;
75171;SDS011;63750;52.418;20.742;2023-03-08T07:01:25;10.30;;;9.30;;
75171;SDS011;63750;52.418;20.742;2023-03-08T07:03:52;10.30;;;9.20;;
75171;SDS011;63750;52.418;20.742;2023-03-08T07:06:20;10.00;;;8.90;;
75171;SDS011;63750;52.418;20.742;2023-03-08T07:08:47;10.50;;;9.40;;
75171;SDS011;63750;52.418;20.742;2023-03-08T07:11:14;10.70;;;9.40;;
75171;SDS011;63750;52.418;20.742;2023-03-08T07:13:42;10.10;;;9.10;;
75171;SDS011;63750;52.418;20.742;2023-03-08T07:16:10;12.30;;;9.80;;
75171;SDS011;63750;52.418;20.742;2023-03-08T07:18:38;11.30;;;8.90;;
75171;SDS011;63750;52.418;20.742;2023-03-08T07:21:06;11.20;;;9.00;;
75171;SDS011;63750;52.418;20.742;2023-03-08T07:23:34;9.00;;;8.10;;
75171;SDS011;63750;52.418;20.742;2023-03-08T07:26:03;11.00;;;8.20;;
75171;SDS011;63750;52.418;20.742;2023-03-08T07:28:31;10.10;;;8.20;;
75171;SDS011;63750;52.418;20.742;2023-03-08T07:30:59;10.10;;;8.10;;
75171;SDS011;63750;52.418;20.742;2023-03-08T07:33:26;11.20;;;7.80;;
75171;SDS011;63750;52.418;20.742;2023-03-08T07:35:54;9.10;;;8.20;;
75171;SDS011;63750;52.418;20.742;2023-03-08T07:38:23;8.70;;;7.80;;
75171;SDS011;63750;52.418;20.742;2023-03-08T07:40:53;9.20;;;8.20;;
75171;SDS011;63750;52.418;20.742;2023-03-08T07:43:21;9.10;;;8.20;;
75171;SDS011;63750;52.418;20.742;2023-03-08T07:45:48;10.50;;;8.10;;
75171;SDS011;63750;52.418;20.742;2023-03-08T07:48:16;9.10;;;8.00;;
75171;SDS011;63750;52.418;20.742;2023-03-08T07:50:43;9.50;;;7.10;;
75171;SDS011;63750;52.418;20.742;2023-03-08T07:53:10;9.00;;;7.60;;
75171;SDS011;63750;52.418;20.742;2023-03-08T07:55:38;8.50;;;7.30;;
75171;SDS011;63750;52.418;20.742;2023-03-08T07:58:05;8.90;;;7.90;;
75171;SDS011;63750;52.418;20.742;2023-03-08T08:00:33;10.70;;;7.50;;
75171;SDS011;63750;52.418;20.742;2023-03-08T08:03:00;9.90;;;7.20;;
75171;SDS011;63750;52.418;20.742;2023-03-08T08:05:27;8.60;;;7.00;;
75171;SDS011;63750;52.418;20.742;2023-03-08T08:07:55;7.80;;;6.70;;
75171;SDS011;63750;52.418;20.742;2023-03-08T08:10:22;8.80;;;6.50;;
75171;SDS011;63750;52.418;20.742;2023-03-08T08:12:49;8.00;;;6.20;;
75171;SDS011;63750;52.418;20.742;2023-03-08T08:15:17;8.50;;;5.90;;
75171;SDS011;63750;52.418;20.742;2023-03-08T08:17:44;6.80;;;5.80;;
75171;SDS011;63750;52.418;20.742;2023-03-08T08:20:12;7.40;;;6.00;;
75171;SDS011;63750;52.418;20.742;2023-03-08T08:22:39;9.20;;;5.80;;
75171;SDS011;63750;52.418;20.742;2023-03-08T08:25:07;7.60;;;5.60;;
75171;SDS011;63750;52.418;20.742;2023-03-08T08:27:35;7.00;;;5.70;;
75171;SDS011;63750;52.418;20.742;2023-03-08T08:30:02;9.60;;;5.80;;
75171;SDS011;63750;52.418;20.742;2023-03-08T08:32:32;8.30;;;6.20;;
75171;SDS011;63750;52.418;20.742;2023-03-08T08:34:59;8.80;;;5.80;;
75171;SDS011;63750;52.418;20.742;2023-03-08T08:37:27;5.90;;;5.30;;
75171;SDS011;63750;52.418;20.742;2023-03-08T08:39:54;9.80;;;5.30;;
75171;SDS011;63750;52.418;20.742;2023-03-08T08:42:22;7.00;;;5.10;;
75171;SDS011;63750;52.418;20.742;2023-03-08T08:44:51;8.40;;;5.60;;
75171;SDS011;63750;52.418;20.742;2023-03-08T08:47:18;5.90;;;5.30;;
75171;SDS011;63750;52.418;20.742;2023-03-08T08:49:46;7.30;;;5.70;;
75171;SDS011;63750;52.418;20.742;2023-03-08T08:52:13;7.00;;;5.50;;
75171;SDS011;63750;52.418;20.742;2023-03-08T08:54:41;7.40;;;5.60;;
75171;SDS011;63750;52.418;20.742;2023-03-08T08:57:08;5.40;;;4.90;;
75171;SDS011;63750;52.418;20.742;2023-03-08T08:59:35;5.40;;;4.80;;
75171;SDS011;63750;52.418;20.742;2023-03-08T09:02:03;7.20;;;5.30;;
75171;SDS011;63750;52.418;20.742;2023-03-08T09:04:30;7.30;;;4.50;;
75171;SDS011;63750;52.418;20.742;2023-03-08T09:06:57;7.70;;;5.60;;
75171;SDS011;63750;52.418;20.742;2023-03-08T09:09:25;6.20;;;5.40;;
75171;SDS011;63750;52.418;20.742;2023-03-08T09:11:52;5.30;;;4.80;;
75171;SDS011;63750;52.418;20.742;2023-03-08T09:14:19;5.20;;;4.80;;
75171;SDS011;63750;52.418;20.742;2023-03-08T09:16:47;5.10;;;4.60;;
75171;SDS011;63750;52.418;20.742;2023-03-08T09:19:14;5.70;;;4.70;;
75171;SDS011;63750;52.418;20.742;2023-03-08T09:21:42;5.00;;;4.30;;
75171;SDS011;63750;52.418;20.742;2023-03-08T09:24:09;5.20;;;4.80;;
75171;SDS011;63750;52.418;20.742;2023-03-08T09:26:37;5.20;;;4.70;;
75171;SDS011;63750;52.418;20.742;2023-03-08T09:29:04;4.90;;;4.40;;
75171;SDS011;63750;52.418;20.742;2023-03-08T09:31:32;4.90;;;4.50;;
75171;SDS011;63750;52.418;20.742;2023-03-08T09:34:01;6.80;;;4.80;;
75171;SDS011;63750;52.418;20.742;2023-03-08T09:36:29;5.30;;;4.60;;
75171;SDS011;63750;52.418;20.742;2023-03-08T09:38:56;6.30;;;5.30;;
75171;SDS011;63750;52.418;20.742;2023-03-08T09:41:33;5.60;;;5.00;;
75171;SDS011;63750;52.418;20.742;2023-03-08T09:44:19;5.20;;;4.70;;
75171;SDS011;63750;52.418;20.742;2023-03-08T09:47:05;6.30;;;5.00;;
75171;SDS011;63750;52.418;20.742;2023-03-08T09:49:38;6.30;;;5.20;;
75171;SDS011;63750;52.418;20.742;2023-03-08T09:52:10;5.50;;;4.70;;
75171;SDS011;63750;52.418;20.742;2023-03-08T09:54:42;6.30;;;5.00;;
75171;SDS011;63750;52.418;20.742;2023-03-08T09:57:11;6.20;;;4.20;;
75171;SDS011;63750;52.418;20.742;2023-03-08T09:59:44;6.30;;;4.60;;
75171;SDS011;63750;52.418;20.742;2023-03-08T10:02:23;5.60;;;4.50;;
75171;SDS011;63750;52.418;20.742;2023-03-08T10:05:01;5.10;;;4.50;;
75171;SDS011;63750;52.418;20.742;2023-03-08T10:07:34;5.20;;;4.50;;
75171;SDS011;63750;52.418;20.742;2023-03-08T10:10:17;5.30;;;4.80;;
75171;SDS011;63750;52.418;20.742;2023-03-08T10:12:57;4.90;;;4.40;;
75171;SDS011;63750;52.418;20.742;2023-03-08T10:15:40;5.90;;;4.80;;
75171;SDS011;63750;52.418;20.742;2023-03-08T10:18:12;5.50;;;4.40;;
75171;SDS011;63750;52.418;20.742;2023-03-08T10:20:45;5.90;;;5.20;;
75171;SDS011;63750;52.418;20.742;2023-03-08T10:23:14;5.60;;;4.70;;
75171;SDS011;63750;52.418;20.742;2023-03-08T10:25:43;4.90;;;4.40;;
75171;SDS011;63750;52.418;20.742;2023-03-08T10:28:13;5.60;;;4.50;;
75171;SDS011;63750;52.418;20.742;2023-03-08T10:30:43;5.00;;;4.30;;
75171;SDS011;63750;52.418;20.742;2023-03-08T10:33:14;6.10;;;4.10;;
75171;SDS011;63750;52.418;20.742;2023-03-08T10:38:29;5.50;;;4.70;;
75171;SDS011;63750;52.418;20.742;2023-03-08T10:41:00;6.70;;;4.80;;
75171;SDS011;63750;52.418;20.742;2023-03-08T10:43:29;5.70;;;4.60;;
75171;SDS011;63750;52.418;20.742;2023-03-08T10:45:58;4.80;;;4.40;;
75171;SDS011;63750;52.418;20.742;2023-03-08T10:48:27;7.70;;;4.40;;
75171;SDS011;63750;52.418;20.742;2023-03-08T10:50:58;7.00;;;4.80;;
75171;SDS011;63750;52.418;20.742;2023-03-08T10:53:27;5.00;;;4.50;;
75171;SDS011;63750;52.418;20.742;2023-03-08T10:55:55;7.50;;;4.80;;
75171;SDS011;63750;52.418;20.742;2023-03-08T10:58:29;4.60;;;3.80;;
75171;SDS011;63750;52.418;20.742;2023-03-08T11:00:59;5.20;;;4.10;;
75171;SDS011;63750;52.418;20.742;2023-03-08T11:03:29;4.90;;;3.90;;
75171;SDS011;63750;52.418;20.742;2023-03-08T11:05:58;5.20;;;4.10;;
75171;SDS011;63750;52.418;20.742;2023-03-08T11:08:28;4.80;;;3.70;;
75171;SDS011;63750;52.418;20.742;2023-03-08T11:11:04;4.20;;;3.80;;
75171;SDS011;63750;52.418;20.742;2023-03-08T11:13:33;4.20;;;3.60;;
75171;SDS011;63750;52.418;20.742;2023-03-08T11:16:16;4.70;;;3.60;;
75171;SDS011;63750;52.418;20.742;2023-03-08T11:19:01;4.40;;;3.80;;
75171;SDS011;63750;52.418;20.742;2023-03-08T11:21:40;4.30;;;3.80;;
75171;SDS011;63750;52.418;20.742;2023-03-08T11:24:17;5.60;;;4.80;;
75171;SDS011;63750;52.418;20.742;2023-03-08T11:27:03;4.80;;;4.40;;
75171;SDS011;63750;52.418;20.742;2023-03-08T11:29:47;4.70;;;4.30;;
75171;SDS011;63750;52.418;20.742;2023-03-08T11:32:33;5.10;;;4.50;;
75171;SDS011;63750;52.418;20.742;2023-03-08T11:35:10;5.10;;;4.40;;
75171;SDS011;63750;52.418;20.742;2023-03-08T11:37:49;5.30;;;4.30;;
75171;SDS011;63750;52.418;20.742;2023-03-08T11:40:23;4.90;;;4.50;;
75171;SDS011;63750;52.418;20.742;2023-03-08T11:42:54;6.60;;;4.40;;
75171;SDS011;63750;52.418;20.742;2023-03-08T11:45:42;4.90;;;4.30;;
75171;SDS011;63750;52.418;20.742;2023-03-08T11:48:25;4.80;;;4.10;;
75171;SDS011;63750;52.418;20.742;2023-03-08T11:51:02;4.90;;;4.00;;
75171;SDS011;63750;52.418;20.742;2023-03-08T11:53:39;5.10;;;4.30;;
75171;SDS011;63750;52.418;20.742;2023-03-08T11:56:22;5.00;;;4.30;;
75171;SDS011;63750;52.418;20.742;2023-03-08T11:59:00;6.20;;;4.40;;
75171;SDS011;63750;52.418;20.742;2023-03-08T12:01:34;5.60;;;4.70;;
75171;SDS011;63750;52.418;20.742;2023-03-08T12:04:07;7.70;;;4.80;;
75171;SDS011;63750;52.418;20.742;2023-03-08T12:06:38;5.80;;;4.50;;
75171;SDS011;63750;52.418;20.742;2023-03-08T12:09:11;6.10;;;4.40;;
75171;SDS011;63750;52.418;20.742;2023-03-08T12:11:45;7.50;;;4.40;;
75171;SDS011;63750;52.418;20.742;2023-03-08T12:14:17;5.50;;;4.40;;
75171;SDS011;63750;52.418;20.742;2023-03-08T12:16:48;4.60;;;4.10;;
75171;SDS011;63750;52.418;20.742;2023-03-08T12:19:23;4.90;;;4.30;;
75171;SDS011;63750;52.418;20.742;2023-03-08T12:21:57;6.50;;;4.60;;
75171;SDS011;63750;52.418;20.742;2023-03-08T12:24:37;5.90;;;4.40;;
75171;SDS011;63750;52.418;20.742;2023-03-08T12:27:13;5.10;;;4.60;;
75171;SDS011;63750;52.418;20.742;2023-03-08T12:29:46;6.40;;;4.30;;
75171;SDS011;63750;52.418;20.742;2023-03-08T12:32:18;5.20;;;4.30;;
75171;SDS011;63750;52.418;20.742;2023-03-08T12:34:47;5.90;;;4.90;;
75171;SDS011;63750;52.418;20.742;2023-03-08T12:37:25;5.50;;;4.30;;
75171;SDS011;63750;52.418;20.742;2023-03-08T12:39:55;7.50;;;5.20;;
75171;SDS011;63750;52.418;20.742;2023-03-08T12:42:27;5.20;;;4.80;;
75171;SDS011;63750;52.418;20.742;2023-03-08T12:45:05;5.60;;;4.40;;
75171;SDS011;63750;52.418;20.742;2023-03-08T12:47:55;5.20;;;4.70;;
75171;SDS011;63750;52.418;20.742;2023-03-08T12:50:27;7.00;;;4.90;;
75171;SDS011;63750;52.418;20.742;2023-03-08T12:52:55;5.90;;;5.00;;
75171;SDS011;63750;52.418;20.742;2023-03-08T12:55:24;5.90;;;4.10;;
75171;SDS011;63750;52.418;20.742;2023-03-08T12:57:53;5.80;;;4.50;;
75171;SDS011;63750;52.418;20.742;2023-03-08T13:00:27;5.50;;;4.80;;
75171;SDS011;63750;52.418;20.742;2023-03-08T13:03:01;6.90;;;4.70;;
75171;SDS011;63750;52.418;20.742;2023-03-08T13:05:31;5.80;;;4.90;;
75171;SDS011;63750;52.418;20.742;2023-03-08T13:08:17;5.50;;;4.20;;
75171;SDS011;63750;52.418;20.742;2023-03-08T13:10:56;4.70;;;4.10;;
75171;SDS011;63750;52.418;20.742;2023-03-08T13:13:30;5.70;;;5.00;;
75171;SDS011;63750;52.418;20.742;2023-03-08T13:16:06;5.20;;;4.30;;
75171;SDS011;63750;52.418;20.742;2023-03-08T13:18:44;5.70;;;4.40;;
75171;SDS011;63750;52.418;20.742;2023-03-08T13:21:25;7.90;;;4.90;;
75171;SDS011;63750;52.418;20.742;2023-03-08T13:23:57;7.00;;;5.20;;
75171;SDS011;63750;52.418;20.742;2023-03-08T13:26:34;6.70;;;4.60;;
75171;SDS011;63750;52.418;20.742;2023-03-08T13:29:12;5.40;;;4.50;;
75171;SDS011;63750;52.418;20.742;2023-03-08T13:31:42;6.40;;;4.40;;
75171;SDS011;63750;52.418;20.742;2023-03-08T13:34:25;7.10;;;4.80;;
75171;SDS011;63750;52.418;20.742;2023-03-08T13:36:53;5.70;;;4.30;;
75171;SDS011;63750;52.418;20.742;2023-03-08T13:39:21;5.00;;;4.50;;
75171;SDS011;63750;52.418;20.742;2023-03-08T13:41:50;5.00;;;4.50;;
75171;SDS011;63750;52.418;20.742;2023-03-08T13:44:20;6.30;;;4.30;;
75171;SDS011;63750;52.418;20.742;2023-03-08T13:46:49;5.00;;;4.10;;
75171;SDS011;63750;52.418;20.742;2023-03-08T13:49:21;5.00;;;3.80;;
75171;SDS011;63750;52.418;20.742;2023-03-08T13:51:50;5.50;;;4.10;;
75171;SDS011;63750;52.418;20.742;2023-03-08T13:54:23;6.80;;;4.40;;
75171;SDS011;63750;52.418;20.742;2023-03-08T13:56:52;4.80;;;3.90;;
75171;SDS011;63750;52.418;20.742;2023-03-08T13:59:20;5.40;;;4.90;;
75171;SDS011;63750;52.418;20.742;2023-03-08T14:01:48;7.70;;;5.00;;
75171;SDS011;63750;52.418;20.742;2023-03-08T14:04:18;5.90;;;4.30;;
75171;SDS011;63750;52.418;20.742;2023-03-08T14:06:50;6.30;;;4.60;;
75171;SDS011;63750;52.418;20.742;2023-03-08T14:09:19;6.80;;;4.70;;
75171;SDS011;63750;52.418;20.742;2023-03-08T14:11:52;7.90;;;5.30;;
75171;SDS011;63750;52.418;20.742;2023-03-08T14:14:25;9.80;;;5.30;;
75171;SDS011;63750;52.418;20.742;2023-03-08T14:16:56;6.50;;;5.30;;
75171;SDS011;63750;52.418;20.742;2023-03-08T14:19:26;7.20;;;4.90;;
75171;SDS011;63750;52.418;20.742;2023-03-08T14:21:55;8.80;;;5.50;;
75171;SDS011;63750;52.418;20.742;2023-03-08T14:24:25;6.50;;;5.60;;
75171;SDS011;63750;52.418;20.742;2023-03-08T14:26:56;6.40;;;5.20;;
75171;SDS011;63750;52.418;20.742;2023-03-08T14:29:25;8.00;;;5.40;;
75171;SDS011;63750;52.418;20.742;2023-03-08T14:31:55;7.90;;;5.20;;
75171;SDS011;63750;52.418;20.742;2023-03-08T14:34:25;6.30;;;5.70;;
75171;SDS011;63750;52.418;20.742;2023-03-08T14:36:55;6.30;;;5.30;;
75171;SDS011;63750;52.418;20.742;2023-03-08T14:39:25;6.70;;;5.30;;
75171;SDS011;63750;52.418;20.742;2023-03-08T14:41:55;5.90;;;5.40;;
75171;SDS011;63750;52.418;20.742;2023-03-08T14:44:22;7.70;;;5.70;;
75171;SDS011;63750;52.418;20.742;2023-03-08T14:46:52;6.60;;;5.20;;
75171;SDS011;63750;52.418;20.742;2023-03-08T14:49:20;8.00;;;5.80;;